createdAt,value
2022-11-13T00:00:56.607Z,4.97
2022-11-13T00:03:23.395Z,4.47
2022-11-13T00:05:59.366Z,4.57
2022-11-13T00:08:26.186Z,4.70
2022-11-13T00:10:59.340Z,4.10
2022-11-13T00:13:30.147Z,4.28
2022-11-13T00:15:58.510Z,4.28
2022-11-13T00:18:25.393Z,4.38
2022-11-13T00:20:52.265Z,4.70
2022-11-13T00:23:18.834Z,3.67
2022-11-13T00:25:45.392Z,3.78
2022-11-13T00:28:11.929Z,3.97
2022-11-13T00:30:38.494Z,3.78
2022-11-13T00:33:05.049Z,3.80
2022-11-13T00:35:32.765Z,2.78
2022-11-13T00:37:59.386Z,3.28
2022-11-13T00:40:25.927Z,2.83
2022-11-13T00:42:52.435Z,4.18
2022-11-13T00:45:18.954Z,3.90
2022-11-13T00:47:45.455Z,4.65
2022-11-13T00:50:12.031Z,3.67
2022-11-13T00:52:38.603Z,3.55
2022-11-13T00:55:05.607Z,3.20
2022-11-13T00:57:32.161Z,3.53
2022-11-13T00:59:58.662Z,3.55
2022-11-13T01:02:25.218Z,3.90
2022-11-13T01:04:51.751Z,2.95
2022-11-13T01:07:18.421Z,3.95
2022-11-13T01:09:45.031Z,3.20
2022-11-13T01:12:12.708Z,3.78
2022-11-13T01:14:39.284Z,3.72
2022-11-13T01:17:05.837Z,4.50
2022-11-13T01:19:32.406Z,4.32
2022-11-13T01:21:58.947Z,3.80
2022-11-13T01:24:25.543Z,4.40
2022-11-13T01:26:52.073Z,3.30
2022-11-13T01:29:18.594Z,3.80
2022-11-13T01:31:45.133Z,2.95
2022-11-13T01:34:11.739Z,3.33
2022-11-13T01:36:38.243Z,3.05
2022-11-13T01:39:04.846Z,4.07
2022-11-13T01:41:33.464Z,3.00
2022-11-13T01:44:01.141Z,3.00
2022-11-13T01:46:31.933Z,2.78
2022-11-13T01:49:10.695Z,2.97
2022-11-13T01:51:52.531Z,2.35
2022-11-13T01:54:42.995Z,2.97
2022-11-13T01:57:10.488Z,3.10
2022-11-13T01:59:43.871Z,3.08
2022-11-13T02:02:10.537Z,2.95
2022-11-13T02:04:37.170Z,2.83
2022-11-13T02:07:12.793Z,3.47
2022-11-13T02:09:42.998Z,3.67
2022-11-13T02:12:15.346Z,3.22
2022-11-13T02:14:45.697Z,3.85
2022-11-13T02:17:19.608Z,3.60
2022-11-13T02:19:50.182Z,3.72
2022-11-13T02:22:20.179Z,3.22
2022-11-13T02:24:49.845Z,3.13
2022-11-13T02:27:30.191Z,3.40
2022-11-13T02:29:56.739Z,3.85
2022-11-13T02:32:23.275Z,4.15
2022-11-13T02:34:49.808Z,3.20
2022-11-13T02:37:17.227Z,3.63
2022-11-13T02:39:43.747Z,3.72
2022-11-13T02:42:10.308Z,2.85
2022-11-13T02:44:36.843Z,4.18
2022-11-13T02:47:03.449Z,3.70
2022-11-13T02:49:29.976Z,4.18
2022-11-13T02:51:56.518Z,4.32
2022-11-13T02:54:23.074Z,2.42
2022-11-13T02:56:49.627Z,4.05
2022-11-13T02:59:16.285Z,4.07
2022-11-13T03:01:42.929Z,3.53
2022-11-13T03:04:09.715Z,4.07
2022-11-13T03:06:36.239Z,3.63
2022-11-13T03:09:02.962Z,4.22
2022-11-13T03:11:29.487Z,4.57
2022-11-13T03:13:56.498Z,4.60
2022-11-13T03:16:23.072Z,3.63
2022-11-13T03:18:49.645Z,4.30
2022-11-13T03:21:16.412Z,4.03
2022-11-13T03:23:46.541Z,3.72
2022-11-13T03:26:15.653Z,4.57
2022-11-13T03:28:42.257Z,3.17
2022-11-13T03:31:09.094Z,3.97
2022-11-13T03:33:35.634Z,5.05
2022-11-13T03:36:02.199Z,3.78
2022-11-13T03:38:28.927Z,3.70
2022-11-13T03:40:55.731Z,4.68
2022-11-13T03:43:22.671Z,5.15
2022-11-13T03:45:49.502Z,4.63
2022-11-13T03:48:16.535Z,5.18
2022-11-13T03:50:45.741Z,4.32
2022-11-13T03:53:12.640Z,4.00
2022-11-13T03:55:39.612Z,4.63
2022-11-13T03:58:06.236Z,4.10
2022-11-13T04:00:33.414Z,4.30
2022-11-13T04:02:59.949Z,4.22
2022-11-13T04:05:27.291Z,4.45
2022-11-13T04:07:53.967Z,3.25
2022-11-13T04:10:20.597Z,4.05
2022-11-13T04:12:47.304Z,5.22
2022-11-13T04:15:13.834Z,3.63
2022-11-13T04:17:40.408Z,3.80
2022-11-13T04:20:07.895Z,2.92
2022-11-13T04:22:34.440Z,3.05
2022-11-13T04:25:01.006Z,5.10
2022-11-13T04:27:27.561Z,3.20
2022-11-13T04:29:54.128Z,4.30
2022-11-13T04:32:20.696Z,3.20
2022-11-13T04:34:47.256Z,3.78
2022-11-13T04:37:14.136Z,3.22
2022-11-13T04:39:40.684Z,4.32
2022-11-13T04:42:27.530Z,3.58
2022-11-13T04:44:54.074Z,2.95
2022-11-13T04:47:20.889Z,3.65
2022-11-13T04:49:47.402Z,3.60
2022-11-13T04:52:14.270Z,3.63
2022-11-13T04:54:40.961Z,3.53
2022-11-13T04:57:07.502Z,4.38
2022-11-13T04:59:34.004Z,3.80
2022-11-13T05:02:00.782Z,4.63
2022-11-13T05:04:27.350Z,4.15
2022-11-13T05:06:53.961Z,2.70
2022-11-13T05:09:20.526Z,3.35
2022-11-13T05:11:47.135Z,4.03
2022-11-13T05:14:13.868Z,3.40
2022-11-13T05:16:40.651Z,3.10
2022-11-13T05:19:07.961Z,3.53
2022-11-13T05:21:39.155Z,3.15
2022-11-13T05:24:06.170Z,3.92
2022-11-13T05:26:32.925Z,3.65
2022-11-13T05:29:00.581Z,2.95
2022-11-13T05:31:27.711Z,4.18
2022-11-13T05:33:54.803Z,4.82
2022-11-13T05:36:22.366Z,4.40
2022-11-13T05:38:48.986Z,3.80
2022-11-13T05:41:20.756Z,5.70
2022-11-13T05:43:47.980Z,4.00
2022-11-13T05:46:14.487Z,4.13
2022-11-13T05:48:41.944Z,3.75
2022-11-13T05:51:17.313Z,4.75
2022-11-13T05:53:44.084Z,3.25
2022-11-13T05:56:14.894Z,3.83
2022-11-13T05:58:43.011Z,4.30
2022-11-13T06:01:12.674Z,3.72
2022-11-13T06:03:39.847Z,3.97
2022-11-13T06:06:08.847Z,4.30
2022-11-13T06:08:36.007Z,4.22
2022-11-13T06:11:05.556Z,4.22
2022-11-13T06:13:32.544Z,3.33
2022-11-13T06:16:07.247Z,3.60
2022-11-13T06:18:34.754Z,4.40
2022-11-13T06:21:03.434Z,4.55
2022-11-13T06:23:31.991Z,4.10
2022-11-13T06:26:04.143Z,3.10
2022-11-13T06:28:31.147Z,3.67
2022-11-13T06:31:03.927Z,3.90
2022-11-13T06:33:31.025Z,3.95
2022-11-13T06:35:58.009Z,4.55
2022-11-13T06:38:24.623Z,3.05
2022-11-13T06:40:51.158Z,2.75
2022-11-13T06:43:17.690Z,4.05
2022-11-13T06:45:44.246Z,5.20
2022-11-13T06:48:10.981Z,2.85
2022-11-13T06:50:37.604Z,5.07
2022-11-13T06:53:04.159Z,3.47
2022-11-13T06:55:30.704Z,4.78
2022-11-13T06:57:57.340Z,4.28
2022-11-13T07:00:23.902Z,4.13
2022-11-13T07:02:50.508Z,4.22
2022-11-13T07:05:17.503Z,2.65
2022-11-13T07:07:44.070Z,4.03
2022-11-13T07:10:10.819Z,4.80
2022-11-13T07:12:37.454Z,5.30
2022-11-13T07:15:04.340Z,5.32
2022-11-13T07:17:30.911Z,4.13
2022-11-13T07:19:57.450Z,3.35
2022-11-13T07:22:25.345Z,4.10
2022-11-13T07:24:53.566Z,3.88
2022-11-13T07:27:20.079Z,4.40
2022-11-13T07:29:46.586Z,4.95
2022-11-13T07:32:13.166Z,3.22
2022-11-13T07:34:39.696Z,4.90
2022-11-13T07:37:09.157Z,3.85
2022-11-13T07:39:35.709Z,4.45
2022-11-13T07:42:02.445Z,3.45
2022-11-13T07:44:52.977Z,4.00
2022-11-13T07:47:15.609Z,4.05
2022-11-13T07:49:42.146Z,3.45
2022-11-13T07:52:08.763Z,3.40
2022-11-13T07:54:35.457Z,2.67
2022-11-13T07:57:02.008Z,4.00
2022-11-13T07:59:28.544Z,3.45
2022-11-13T08:01:55.087Z,5.15
2022-11-13T08:04:21.887Z,3.47
2022-11-13T08:06:48.443Z,4.95
2022-11-13T08:09:15.072Z,4.75
2022-11-13T08:11:41.761Z,4.22
2022-11-13T08:14:08.798Z,4.55
2022-11-13T08:16:35.365Z,4.78
2022-11-13T08:19:02.939Z,4.15
2022-11-13T08:21:29.603Z,3.30
2022-11-13T08:23:56.106Z,5.40
2022-11-13T08:26:23.103Z,4.90
2022-11-13T08:28:49.715Z,5.15
2022-11-13T08:31:17.048Z,4.03
2022-11-13T08:33:43.731Z,5.55
2022-11-13T08:36:11.403Z,4.15
2022-11-13T08:38:38.194Z,5.05
2022-11-13T08:41:09.315Z,5.18
2022-11-13T08:43:36.410Z,4.30
2022-11-13T08:46:03.154Z,4.55
2022-11-13T08:48:30.304Z,4.82
2022-11-13T08:50:57.609Z,6.22
2022-11-13T08:53:25.228Z,5.80
2022-11-13T08:55:52.083Z,5.38
2022-11-13T08:58:18.718Z,5.93
2022-11-13T09:00:45.284Z,5.38
2022-11-13T09:03:12.417Z,4.88
2022-11-13T09:05:39.209Z,4.97
2022-11-13T09:08:06.372Z,6.40
2022-11-13T09:10:33.273Z,4.88
2022-11-13T09:13:01.959Z,5.30
2022-11-13T09:15:30.406Z,5.07
2022-11-13T09:18:01.786Z,5.35
2022-11-13T09:20:32.879Z,4.28
2022-11-13T09:23:04.824Z,6.55
2022-11-13T09:25:37.291Z,7.10
2022-11-13T09:28:06.022Z,4.38
2022-11-13T09:30:32.939Z,5.25
2022-11-13T09:33:00.789Z,5.00
2022-11-13T09:35:34.524Z,5.53
2022-11-13T09:38:11.547Z,5.75
2022-11-13T09:40:52.140Z,5.22
2022-11-13T09:44:00.360Z,6.20
2022-11-13T09:46:49.315Z,4.43
2022-11-13T09:49:27.157Z,5.25
2022-11-13T09:51:57.538Z,5.38
2022-11-13T09:54:24.152Z,7.00
2022-11-13T09:57:11.563Z,5.40
2022-11-13T09:59:49.069Z,4.88
2022-11-13T10:02:38.257Z,6.30
2022-11-13T10:05:10.967Z,5.90
2022-11-13T10:07:55.006Z,4.88
2022-11-13T10:10:43.452Z,5.22
2022-11-13T10:13:21.367Z,5.20
2022-11-13T10:15:52.757Z,5.97
2022-11-13T10:18:34.723Z,6.72
2022-11-13T10:21:15.306Z,7.20
2022-11-13T10:23:47.028Z,4.95
2022-11-13T10:26:19.961Z,5.25
2022-11-13T10:28:51.705Z,4.85
2022-11-13T10:31:18.435Z,5.10
2022-11-13T10:33:44.991Z,5.03
2022-11-13T10:36:26.193Z,5.53
2022-11-13T10:39:06.206Z,6.97
2022-11-13T10:41:33.097Z,3.97
2022-11-13T10:44:21.629Z,5.82
2022-11-13T10:46:48.732Z,6.50
2022-11-13T10:49:25.915Z,5.88
2022-11-13T10:51:57.632Z,5.80
2022-11-13T10:54:27.970Z,5.70
2022-11-13T10:57:03.531Z,5.80
2022-11-13T10:59:42.079Z,7.05
2022-11-13T11:02:11.397Z,4.90
2022-11-13T11:04:37.927Z,4.90
2022-11-13T11:07:21.304Z,5.18
2022-11-13T11:09:50.547Z,6.20
2022-11-13T11:12:31.164Z,6.72
2022-11-13T11:15:04.963Z,5.25
2022-11-13T11:17:46.171Z,6.88
2022-11-13T11:20:53.572Z,5.07
2022-11-13T11:23:29.296Z,5.45
2022-11-13T11:26:03.846Z,4.90
2022-11-13T11:28:35.830Z,4.90
2022-11-13T11:31:15.483Z,5.30
2022-11-13T11:33:59.008Z,4.78
2022-11-13T11:36:33.253Z,4.88
2022-11-13T11:39:21.386Z,6.65
2022-11-13T11:41:55.293Z,5.75
2022-11-13T11:44:29.507Z,6.07
2022-11-13T11:46:56.067Z,5.95
2022-11-13T11:49:25.895Z,6.57
2022-11-13T11:52:12.800Z,5.53
2022-11-13T11:54:49.072Z,5.45
2022-11-13T11:57:46.568Z,5.50
2022-11-13T12:00:17.307Z,5.03
2022-11-13T12:03:16.167Z,4.50
2022-11-13T12:06:00.295Z,4.57
2022-11-13T12:08:41.248Z,4.55
2022-11-13T12:11:31.677Z,5.20
2022-11-13T12:14:20.243Z,3.75
2022-11-13T12:17:05.839Z,5.30
2022-11-13T12:19:57.403Z,4.40
2022-11-13T12:22:48.540Z,4.55
2022-11-13T12:25:31.872Z,4.10
2022-11-13T12:28:28.280Z,4.00
2022-11-13T12:31:16.333Z,5.20
2022-11-13T12:34:07.378Z,4.30
2022-11-13T12:36:34.631Z,4.72
2022-11-13T12:39:31.487Z,4.43
2022-11-13T12:42:20.900Z,3.72
2022-11-13T12:44:56.313Z,5.28
2022-11-13T12:47:23.366Z,4.32
2022-11-13T12:50:00.660Z,4.63
2022-11-13T12:52:27.336Z,4.93
2022-11-13T12:55:05.581Z,4.40
2022-11-13T12:57:32.440Z,4.03
2022-11-13T13:00:20.534Z,4.95
2022-11-13T13:02:55.171Z,4.97
2022-11-13T13:05:37.961Z,3.92
2022-11-13T13:08:28.113Z,4.00
2022-11-13T13:11:01.126Z,4.15
2022-11-13T13:13:39.903Z,4.18
2022-11-13T13:16:08.649Z,4.88
2022-11-13T13:18:37.622Z,4.10
2022-11-13T13:21:12.058Z,4.18
2022-11-13T13:23:47.419Z,4.00
2022-11-13T13:26:16.713Z,3.15
2022-11-13T13:28:51.103Z,4.80
2022-11-13T13:31:39.042Z,4.35
2022-11-13T13:34:23.696Z,4.30
2022-11-13T13:37:27.904Z,4.95
2022-11-13T13:40:20.212Z,3.85
2022-11-13T13:43:09.283Z,5.55
2022-11-13T13:46:02.146Z,4.97
2022-11-13T13:48:31.586Z,4.43
2022-11-13T13:51:01.095Z,6.25
2022-11-13T13:53:32.578Z,4.72
2022-11-13T13:56:01.264Z,5.13
2022-11-13T13:58:35.116Z,5.60
2022-11-13T14:01:18.409Z,4.68
2022-11-13T14:03:46.977Z,4.78
2022-11-13T14:06:23.075Z,4.45
2022-11-13T14:08:50.207Z,4.45
2022-11-13T14:11:19.907Z,4.05
2022-11-13T14:13:46.561Z,5.10
2022-11-13T14:16:13.964Z,4.68
2022-11-13T14:18:40.647Z,4.60
2022-11-13T14:21:17.618Z,4.90
2022-11-13T14:23:48.642Z,5.05
2022-11-13T14:26:15.643Z,5.82
2022-11-13T14:28:58.196Z,5.45
2022-11-13T14:31:30.690Z,5.93
2022-11-13T14:34:00.785Z,6.38
2022-11-13T14:36:31.464Z,5.10
2022-11-13T14:38:59.017Z,5.65
2022-11-13T14:41:35.125Z,4.55
2022-11-13T14:44:02.112Z,7.38
2022-11-13T14:46:34.759Z,6.05
2022-11-13T14:49:01.596Z,6.35
2022-11-13T14:51:30.484Z,6.28
2022-11-13T14:54:02.063Z,7.68
2022-11-13T14:56:37.287Z,6.50
2022-11-13T14:59:30.284Z,7.07
2022-11-13T15:01:57.868Z,6.90
2022-11-13T15:04:25.227Z,7.72
2022-11-13T15:06:55.631Z,6.60
2022-11-13T15:09:24.290Z,7.88
2022-11-13T15:11:51.018Z,7.85
2022-11-13T15:14:20.700Z,7.63
2022-11-13T15:16:49.314Z,7.43
2022-11-13T15:19:27.040Z,8.15
2022-11-13T15:22:25.427Z,7.85
2022-11-13T15:24:41.671Z,7.93
2022-11-13T15:27:15.053Z,7.05
2022-11-13T15:29:42.482Z,7.07
2022-11-13T15:32:13.909Z,7.60
2022-11-13T15:34:41.263Z,7.70
2022-11-13T15:37:15.788Z,8.15
2022-11-13T15:39:42.490Z,6.97
2022-11-13T15:42:16.073Z,6.97
2022-11-13T15:44:43.741Z,6.97
2022-11-13T15:47:30.089Z,7.38
2022-11-13T15:50:12.809Z,6.47
2022-11-13T15:52:42.592Z,6.18
2022-11-13T15:55:19.836Z,6.70
2022-11-13T15:57:46.571Z,6.50
2022-11-13T16:00:18.757Z,6.45
2022-11-13T16:02:49.988Z,4.88
2022-11-13T16:05:17.061Z,4.28
2022-11-13T16:07:43.807Z,4.22
2022-11-13T16:10:11.194Z,3.92
2022-11-13T16:12:38.276Z,3.40
2022-11-13T16:15:05.338Z,3.72
2022-11-13T16:17:39.239Z,5.13
2022-11-13T16:20:07.540Z,3.17
2022-11-13T16:22:34.126Z,3.75
2022-11-13T16:25:00.688Z,3.13
2022-11-13T16:27:29.743Z,2.88
2022-11-13T16:29:56.518Z,2.63
2022-11-13T16:32:23.786Z,2.70
2022-11-13T16:34:50.412Z,3.20
2022-11-13T16:37:19.400Z,2.63
2022-11-13T16:39:46.575Z,2.55
2022-11-13T16:42:14.763Z,1.88
2022-11-13T16:44:41.767Z,2.15
2022-11-13T16:47:33.700Z,2.50
2022-11-13T16:50:00.907Z,3.03
2022-11-13T16:52:27.862Z,3.10
2022-11-13T16:54:54.392Z,2.50
2022-11-13T16:57:20.927Z,2.45
2022-11-13T16:59:47.465Z,2.40
2022-11-13T17:02:16.412Z,2.78
2022-11-13T17:04:43.946Z,2.40
2022-11-13T17:07:15.036Z,3.03
2022-11-13T17:09:43.011Z,2.78
2022-11-13T17:12:10.995Z,2.25
2022-11-13T17:14:37.909Z,2.47
2022-11-13T17:17:06.155Z,1.90
2022-11-13T17:19:34.335Z,2.10
2022-11-13T17:22:01.495Z,2.55
2022-11-13T17:24:28.234Z,2.60
2022-11-13T17:26:54.831Z,2.63
2022-11-13T17:29:21.395Z,2.75
2022-11-13T17:31:47.915Z,2.30
2022-11-13T17:34:14.522Z,2.13
2022-11-13T17:36:41.295Z,1.95
2022-11-13T17:39:07.916Z,3.22
2022-11-13T17:41:34.916Z,2.10
2022-11-13T17:44:01.711Z,1.90
2022-11-13T17:46:28.318Z,2.08
2022-11-13T17:48:55.015Z,1.90
2022-11-13T17:51:21.797Z,2.30
2022-11-13T17:53:49.857Z,2.15
2022-11-13T17:56:17.577Z,2.35
2022-11-13T17:58:45.235Z,2.95
2022-11-13T18:01:14.614Z,2.53
2022-11-13T18:03:42.002Z,2.30
2022-11-13T18:06:13.403Z,1.80
2022-11-13T18:08:41.556Z,2.20
2022-11-13T18:11:17.296Z,2.10
2022-11-13T18:13:44.798Z,2.10
2022-11-13T18:16:16.455Z,1.85
2022-11-13T18:18:43.139Z,1.88
2022-11-13T18:21:22.833Z,2.47
2022-11-13T18:23:55.857Z,2.30
2022-11-13T18:26:22.788Z,2.58
2022-11-13T18:28:49.334Z,1.80
2022-11-13T18:31:18.467Z,1.73
2022-11-13T18:33:45.196Z,1.98
2022-11-13T18:36:12.015Z,2.78
2022-11-13T18:38:38.735Z,2.50
2022-11-13T18:41:23.959Z,1.92
2022-11-13T18:43:52.008Z,2.03
2022-11-13T18:46:20.961Z,2.00
2022-11-13T18:48:48.500Z,2.17
2022-11-13T18:51:20.159Z,2.38
2022-11-13T18:53:50.702Z,2.00
2022-11-13T18:56:23.425Z,1.80
2022-11-13T18:58:51.611Z,2.15
2022-11-13T19:01:23.188Z,2.38
2022-11-13T19:04:16.049Z,2.22
2022-11-13T19:06:39.519Z,1.52
2022-11-13T19:09:15.343Z,2.28
2022-11-13T19:11:43.233Z,2.72
2022-11-13T19:14:12.887Z,2.45
2022-11-13T19:16:39.860Z,2.20
2022-11-13T19:19:13.749Z,2.25
2022-11-13T19:21:40.465Z,1.95
2022-11-13T19:24:08.604Z,2.90
2022-11-13T19:26:35.362Z,2.85
2022-11-13T19:29:01.871Z,2.40
2022-11-13T19:31:28.647Z,2.47
2022-11-13T19:33:56.747Z,1.73
2022-11-13T19:36:24.884Z,2.60
2022-11-13T19:38:52.670Z,3.00
2022-11-13T19:41:19.760Z,2.63
2022-11-13T19:43:47.847Z,2.38
2022-11-13T19:46:15.738Z,2.30
2022-11-13T19:48:44.146Z,3.30
2022-11-13T19:51:22.471Z,2.58
2022-11-13T19:53:53.414Z,2.58
2022-11-13T19:56:21.479Z,2.75
2022-11-13T19:58:49.543Z,2.90
2022-11-13T20:01:19.846Z,2.55
2022-11-13T20:03:46.673Z,2.80
2022-11-13T20:06:16.411Z,2.45
2022-11-13T20:08:43.275Z,3.15
2022-11-13T20:11:11.886Z,3.08
2022-11-13T20:13:39.227Z,3.80
2022-11-13T20:16:07.259Z,3.83
2022-11-13T20:18:34.589Z,3.33
2022-11-13T20:21:01.496Z,3.38
2022-11-13T20:23:28.023Z,3.60
2022-11-13T20:26:00.189Z,4.63
2022-11-13T20:28:31.374Z,4.40
2022-11-13T20:31:10.492Z,4.13
2022-11-13T20:33:37.170Z,4.00
2022-11-13T20:36:04.464Z,4.50
2022-11-13T20:38:31.428Z,4.05
2022-11-13T20:40:58.075Z,4.25
2022-11-13T20:43:24.733Z,4.32
2022-11-13T20:45:51.295Z,4.95
2022-11-13T20:48:17.907Z,4.72
2022-11-13T20:50:44.796Z,4.38
2022-11-13T20:53:11.443Z,5.07
2022-11-13T20:55:38.695Z,4.75
2022-11-13T20:58:05.366Z,5.15
2022-11-13T21:00:32.098Z,5.45
2022-11-13T21:02:58.708Z,4.88
2022-11-13T21:05:25.271Z,5.85
2022-11-13T21:07:51.870Z,6.30
2022-11-13T21:10:18.573Z,5.80
2022-11-13T21:12:45.287Z,5.20
2022-11-13T21:15:11.795Z,6.25
2022-11-13T21:17:39.155Z,6.40
2022-11-13T21:20:06.242Z,6.80
2022-11-13T21:22:32.949Z,5.38
2022-11-13T21:24:59.466Z,5.53
2022-11-13T21:27:25.988Z,6.60
2022-11-13T21:29:52.968Z,5.82
2022-11-13T21:32:20.304Z,6.50
2022-11-13T21:34:46.817Z,6.13
2022-11-13T21:37:14.360Z,6.63
2022-11-13T21:39:40.968Z,5.93
2022-11-13T21:42:07.567Z,6.78
2022-11-13T21:44:34.182Z,6.38
2022-11-13T21:47:00.792Z,6.95
2022-11-13T21:49:27.397Z,6.43
2022-11-13T21:51:53.949Z,6.93
2022-11-13T21:54:20.523Z,7.68
2022-11-13T21:56:47.100Z,7.05
2022-11-13T21:59:13.726Z,6.93
2022-11-13T22:01:40.319Z,7.20
2022-11-13T22:04:07.393Z,6.18
2022-11-13T22:06:39.756Z,7.32
2022-11-13T22:09:23.355Z,7.97
2022-11-13T22:11:50.098Z,7.53
2022-11-13T22:14:16.987Z,7.47
2022-11-13T22:16:46.237Z,6.60
2022-11-13T22:19:20.340Z,7.85
2022-11-13T22:21:50.632Z,7.75
2022-11-13T22:24:17.241Z,8.32
2022-11-13T22:26:48.343Z,7.40
2022-11-13T22:29:15.120Z,7.82
2022-11-13T22:31:42.853Z,7.07
2022-11-13T22:34:09.367Z,6.70
2022-11-13T22:36:37.000Z,7.53
2022-11-13T22:39:04.655Z,6.28
2022-11-13T22:41:34.131Z,6.90
2022-11-13T22:44:03.486Z,7.65
2022-11-13T22:46:31.675Z,7.43
2022-11-13T22:49:01.595Z,8.50
2022-11-13T22:51:32.520Z,7.78
2022-11-13T22:54:01.525Z,7.32
2022-11-13T22:56:30.621Z,7.32
2022-11-13T22:59:00.720Z,7.22
2022-11-13T23:01:29.872Z,8.15
2022-11-13T23:03:58.019Z,7.60
2022-11-13T23:06:27.085Z,7.90
2022-11-13T23:08:54.261Z,7.00
2022-11-13T23:11:26.513Z,7.35
2022-11-13T23:13:56.428Z,8.10
2022-11-13T23:16:24.373Z,8.35
2022-11-13T23:18:53.135Z,8.65
2022-11-13T23:21:20.055Z,7.43
2022-11-13T23:23:47.273Z,7.93
2022-11-13T23:26:16.041Z,7.93
2022-11-13T23:28:43.039Z,7.70
2022-11-13T23:31:09.951Z,7.38
2022-11-13T23:33:37.978Z,8.45
2022-11-13T23:36:06.635Z,8.27
2022-11-13T23:38:33.475Z,8.30
2022-11-13T23:41:01.438Z,8.55
2022-11-13T23:43:53.909Z,7.00
2022-11-13T23:46:15.728Z,8.32
2022-11-13T23:48:42.483Z,8.70
2022-11-13T23:51:09.032Z,6.93
2022-11-13T23:53:35.572Z,7.57
2022-11-13T23:56:02.090Z,7.05
2022-11-13T23:58:31.851Z,7.22
